Etusivu
METAR-TAF:

METAR-TAF

Lentoasemat :

Agartala, Intia

Leveyspiiri: 23-53-24N, Pituuspiiri: 91-14-32E, korkeus merenpinnasta: 14 m

Tämänhetkinen sää

Tämä raportti tehtiin 26 minuuttia sitten, kello 14.00 UTC
tyyntä
Lämpötila 25°C
Kosteus 100%
Ilmanpaine 999 hPa
Näkyvyys: 3000 m
Muutamia pilviä 1000 ft:n korkeudessa
Hajanaisia pilviä 1800 ft:n korkeudessa
Hajonneita pilviä 10000 ft:n korkeudessa
utua,

METAR: VEAT 191400Z 00000KT 3000 BR FEW010 SCT018 BKN100 25/25 Q0999 NOSIG

Aika: 19:56 (14:26 UTC)

Sääennuste

Tämä raportti tehtiin 3 tuntia ja 26 minuuttia sitten, kello 11.00 UTC
Ennuste voimassa 19. päivästä klo 12 UTC - 19. päivään klo 21 UTC
Tuuli 6 kn etelästä
Näkyvyys: 3000 m
Muutamia pilviä 800 ft:n korkeudessa
Hajanaisia pilviä 1800 ft:n korkeudessa
Hajonneita pilviä 10000 ft:n korkeudessa
heikkoa sadetta, utua,

TAF: VEAT 191100Z 1912/1921 17006KT 3000 -RA BR FEW008 SCT018 BKN100

Säähavainnot ja -ennusteet yli 4000 lentoasemalta (METAR- ja TAF-raportit).

Käytössä olevat sääasemat on merkitty karttaan keltaisilla ja punaisilla pisteillä.

Aseta hiiri pisteen päälle nähdäksesi sääaseman nimen.

Klikkaa sitten nähdäksesi säähavainnot ja -ennusteet.

Kartan vaihtaminen: klikkaa mustalla rastilla varustettuja vihreitä pisteitä, niin voit zoomata sisään; viivalla varustettua vihreää pistettä, niin voit zoomata ulos tai vihreitä nuolia, niin pääset viereisille kartoille.


METAR-TAF: